createdAt,value
2018-01-22T00:01:15.903Z,75.87
2018-01-22T00:03:45.708Z,76.49
2018-01-22T00:06:15.007Z,76.85
2018-01-22T00:08:44.222Z,77.06
2018-01-22T00:11:13.761Z,77.49
2018-01-22T00:13:43.678Z,77.50
2018-01-22T00:16:12.915Z,78.16
2018-01-22T00:18:43.223Z,77.95
2018-01-22T00:21:12.510Z,78.71
2018-01-22T00:23:41.739Z,78.65
2018-01-22T00:26:11.202Z,78.77
2018-01-22T00:28:40.366Z,79.10
2018-01-22T00:31:10.515Z,78.99
2018-01-22T00:33:40.000Z,79.04
2018-01-22T00:36:09.243Z,79.50
2018-01-22T00:38:38.723Z,79.68
2018-01-22T00:41:08.215Z,79.53
2018-01-22T00:43:37.344Z,79.01
2018-01-22T00:46:06.503Z,79.40
2018-01-22T00:48:36.032Z,79.86
2018-01-22T00:51:05.319Z,79.64
2018-01-22T00:53:34.516Z,80.50
2018-01-22T00:56:04.520Z,80.68
2018-01-22T00:58:33.618Z,80.42
2018-01-22T01:01:02.966Z,80.39
2018-01-22T01:03:32.344Z,81.53
2018-01-22T01:06:01.810Z,80.94
2018-01-22T01:08:30.961Z,80.85
2018-01-22T01:11:00.143Z,81.07
2018-01-22T01:13:29.460Z,81.12
2018-01-22T01:15:58.651Z,81.87
2018-01-22T01:18:28.330Z,82.25
2018-01-22T01:20:57.451Z,81.43
2018-01-22T01:23:26.864Z,81.26
2018-01-22T01:25:56.030Z,81.29
2018-01-22T01:28:25.236Z,81.73
2018-01-22T01:30:54.711Z,81.26
2018-01-22T01:33:23.950Z,81.42
2018-01-22T01:35:53.082Z,81.88
2018-01-22T01:38:22.725Z,82.28
2018-01-22T01:40:51.979Z,82.65
2018-01-22T01:43:21.266Z,82.34
2018-01-22T01:45:50.658Z,82.35
2018-01-22T01:48:20.963Z,81.79
2018-01-22T01:50:50.140Z,81.97
2018-01-22T01:53:19.795Z,82.23
2018-01-22T01:55:49.185Z,82.35
2018-01-22T01:58:18.306Z,82.68
2018-01-22T02:00:47.849Z,82.67
2018-01-22T02:03:16.956Z,83.14
2018-01-22T02:05:46.069Z,82.77
2018-01-22T02:08:15.543Z,82.86
2018-01-22T02:10:44.705Z,82.78
2018-01-22T02:13:13.977Z,82.61
2018-01-22T02:15:43.483Z,82.66
2018-01-22T02:18:12.746Z,83.18
2018-01-22T02:20:41.882Z,82.86
2018-01-22T02:23:11.304Z,83.08
2018-01-22T02:25:40.459Z,83.81
2018-01-22T02:28:09.572Z,83.97
2018-01-22T02:30:38.736Z,84.15
2018-01-22T02:33:07.843Z,83.93
2018-01-22T02:35:37.346Z,83.75
2018-01-22T02:38:06.506Z,84.08
2018-01-22T02:40:35.795Z,83.90
2018-01-22T02:43:04.922Z,84.34
2018-01-22T02:45:34.085Z,84.18
2018-01-22T02:48:04.808Z,84.28
2018-01-22T02:50:35.393Z,84.22
2018-01-22T02:53:04.683Z,84.16
2018-01-22T02:55:33.796Z,84.39
2018-01-22T02:58:05.097Z,83.96
2018-01-22T03:00:34.498Z,83.69
2018-01-22T03:03:03.889Z,83.89
2018-01-22T03:05:33.322Z,84.28
2018-01-22T03:08:03.591Z,84.47
2018-01-22T03:10:32.822Z,84.01
2018-01-22T03:13:02.136Z,84.07
2018-01-22T03:15:31.850Z,84.19
2018-01-22T03:18:01.111Z,84.23
2018-01-22T03:20:30.260Z,84.12
2018-01-22T03:22:59.704Z,84.26
2018-01-22T03:25:28.819Z,83.99
2018-01-22T03:27:57.993Z,83.96
2018-01-22T03:30:27.418Z,83.68
2018-01-22T03:32:56.524Z,83.51
2018-01-22T03:35:25.646Z,83.86
2018-01-22T03:37:55.313Z,83.50
2018-01-22T03:40:24.769Z,83.55
2018-01-22T03:42:53.899Z,83.78
2018-01-22T03:45:23.294Z,83.77
2018-01-22T03:47:52.417Z,83.65
2018-01-22T03:50:22.019Z,83.44
2018-01-22T03:52:51.482Z,83.59
2018-01-22T03:55:20.601Z,83.42
2018-01-22T03:57:49.743Z,83.65
2018-01-22T04:00:19.378Z,83.97
2018-01-22T04:02:48.523Z,84.03
2018-01-22T04:05:17.621Z,83.87
2018-01-22T04:07:47.052Z,83.93
2018-01-22T04:10:16.213Z,83.75
2018-01-22T04:12:45.354Z,83.89
2018-01-22T04:15:14.773Z,84.06
2018-01-22T04:17:43.899Z,83.96
2018-01-22T04:20:13.047Z,83.57
2018-01-22T04:22:42.470Z,83.60
2018-01-22T04:25:11.771Z,83.64
2018-01-22T04:27:40.900Z,83.50
2018-01-22T04:30:10.327Z,83.57
2018-01-22T04:32:39.446Z,83.93
2018-01-22T04:35:08.657Z,83.92
2018-01-22T04:37:38.184Z,83.98
2018-01-22T04:40:07.292Z,83.79
2018-01-22T04:42:36.407Z,83.56
2018-01-22T04:45:06.761Z,83.59
2018-01-22T04:47:35.905Z,83.89
2018-01-22T04:50:05.737Z,83.53
2018-01-22T04:52:35.173Z,83.43
2018-01-22T04:55:04.354Z,83.64
2018-01-22T04:57:33.882Z,83.67
2018-01-22T05:00:04.260Z,83.66
2018-01-22T05:02:33.451Z,83.65
2018-01-22T05:05:17.040Z,83.39
2018-01-22T05:07:46.563Z,83.32
2018-01-22T05:10:15.738Z,83.26
2018-01-22T05:12:45.173Z,83.17
2018-01-22T05:15:14.330Z,83.16
2018-01-22T05:17:43.426Z,83.20
2018-01-22T05:20:12.570Z,83.04
2018-01-22T05:22:41.715Z,83.16
2018-01-22T05:25:11.103Z,83.42
2018-01-22T05:27:40.225Z,83.37
2018-01-22T05:30:09.347Z,83.29
2018-01-22T05:32:38.533Z,83.41
2018-01-22T05:35:07.702Z,83.63
2018-01-22T05:37:37.129Z,83.85
2018-01-22T05:40:06.246Z,84.05
2018-01-22T05:42:35.517Z,84.11
2018-01-22T05:45:04.895Z,83.70
2018-01-22T05:47:34.012Z,83.72
2018-01-22T05:50:04.534Z,83.85
2018-01-22T05:52:34.014Z,83.84
2018-01-22T05:55:03.198Z,83.57
2018-01-22T05:57:32.409Z,83.62
2018-01-22T06:00:02.631Z,83.85
2018-01-22T06:02:31.847Z,84.03
2018-01-22T06:05:01.233Z,84.05
2018-01-22T06:07:31.127Z,84.31
2018-01-22T06:10:00.614Z,84.25
2018-01-22T06:12:29.914Z,84.32
2018-01-22T06:14:59.472Z,84.98
2018-01-22T06:17:28.578Z,85.57
2018-01-22T06:19:58.081Z,85.62
2018-01-22T06:22:27.303Z,85.30
2018-01-22T06:24:56.473Z,85.33
2018-01-22T06:29:53.829Z,85.47
2018-01-22T06:32:25.550Z,85.29
2018-01-22T06:34:55.170Z,85.51
2018-01-22T06:37:25.695Z,85.53
2018-01-22T06:39:55.774Z,85.85
2018-01-22T06:42:24.944Z,85.97
2018-01-22T06:44:54.141Z,86.11
2018-01-22T06:49:57.357Z,85.89
2018-01-22T06:52:26.705Z,86.05
2018-01-22T06:54:56.221Z,86.23
2018-01-22T06:57:25.411Z,86.16
2018-01-22T06:59:55.295Z,86.68
2018-01-22T07:02:26.091Z,86.90
2018-01-22T07:04:55.313Z,86.98
2018-01-22T07:07:24.704Z,87.03
2018-01-22T07:09:54.127Z,86.87
2018-01-22T07:12:23.422Z,86.73
2018-01-22T07:14:52.617Z,86.82
2018-01-22T07:17:22.312Z,86.90
2018-01-22T07:19:51.449Z,86.71
2018-01-22T07:22:20.704Z,86.82
2018-01-22T07:24:49.839Z,86.67
2018-01-22T07:27:18.950Z,86.61
2018-01-22T07:29:49.194Z,86.85
2018-01-22T07:32:18.376Z,87.16
2018-01-22T07:34:47.489Z,87.07
2018-01-22T07:37:16.931Z,87.14
2018-01-22T07:39:46.043Z,87.24
2018-01-22T07:42:15.164Z,87.02
2018-01-22T07:44:44.586Z,86.98
2018-01-22T07:47:13.712Z,87.02
2018-01-22T07:49:43.896Z,86.77
2018-01-22T07:52:13.338Z,86.41
2018-01-22T07:54:42.675Z,86.27
2018-01-22T07:57:11.862Z,86.29
2018-01-22T07:59:41.381Z,86.38
2018-01-22T08:02:10.735Z,86.69
2018-01-22T08:04:39.916Z,86.73
2018-01-22T08:07:09.414Z,86.63
2018-01-22T08:09:38.539Z,86.58
2018-01-22T08:12:07.823Z,86.44
2018-01-22T08:14:37.618Z,86.19
2018-01-22T08:17:06.959Z,86.15
2018-01-22T08:19:36.123Z,86.40
2018-01-22T08:22:06.850Z,86.10
2018-01-22T08:24:38.177Z,85.83
2018-01-22T08:27:10.767Z,85.81
2018-01-22T08:29:43.939Z,85.55
2018-01-22T08:32:13.398Z,85.56
2018-01-22T08:34:42.643Z,85.41
2018-01-22T08:37:11.910Z,85.79
2018-01-22T08:39:41.065Z,85.71
2018-01-22T08:42:10.509Z,85.97
2018-01-22T08:44:40.977Z,85.74
2018-01-22T08:47:10.110Z,85.61
2018-01-22T08:49:39.276Z,85.52
2018-01-22T08:52:08.453Z,85.60
2018-01-22T08:54:37.911Z,85.73
2018-01-22T08:57:07.063Z,85.86
2018-01-22T08:59:36.206Z,85.62
2018-01-22T09:02:06.729Z,85.37
2018-01-22T09:04:37.164Z,85.32
2018-01-22T09:07:06.308Z,85.16
2018-01-22T09:09:38.391Z,85.00
2018-01-22T09:12:07.693Z,85.02
2018-01-22T09:14:36.869Z,85.00
2018-01-22T09:17:06.497Z,84.98
2018-01-22T09:19:37.475Z,85.09
2018-01-22T09:22:06.685Z,85.28
2018-01-22T09:24:35.884Z,85.37
2018-01-22T09:27:06.046Z,85.47
2018-01-22T09:29:35.495Z,85.57
2018-01-22T09:32:05.656Z,85.53
2018-01-22T09:34:34.973Z,85.54
2018-01-22T09:37:04.272Z,85.56
2018-01-22T09:39:33.406Z,85.63
2018-01-22T09:42:04.112Z,85.89
2018-01-22T09:44:33.838Z,85.93
2018-01-22T09:47:04.421Z,85.85
2018-01-22T09:49:34.637Z,85.66
2018-01-22T09:52:04.987Z,85.73
2018-01-22T09:54:35.487Z,85.46
2018-01-22T09:57:04.919Z,85.46
2018-01-22T09:59:34.842Z,85.69
2018-01-22T10:02:05.469Z,85.96
2018-01-22T10:04:35.815Z,85.82
2018-01-22T10:07:05.041Z,85.66
2018-01-22T10:09:34.505Z,85.83
2018-01-22T10:12:04.737Z,85.68
2018-01-22T10:14:33.937Z,85.60
2018-01-22T10:17:04.886Z,85.66
2018-01-22T10:19:36.983Z,85.58
2018-01-22T10:22:06.982Z,85.62
2018-01-22T10:24:36.807Z,85.86
2018-01-22T10:27:06.128Z,85.96
2018-01-22T10:29:35.610Z,85.86
2018-01-22T10:32:05.759Z,85.94
2018-01-22T10:34:35.604Z,85.99
2018-01-22T10:37:05.929Z,86.13
2018-01-22T10:39:35.128Z,86.13
2018-01-22T10:42:05.798Z,86.25
2018-01-22T10:44:35.064Z,86.47
2018-01-22T10:47:04.503Z,86.38
2018-01-22T10:49:35.141Z,86.44
2018-01-22T10:52:05.374Z,86.14
2018-01-22T10:54:34.863Z,86.10
2018-01-22T10:57:04.773Z,86.04
2018-01-22T10:59:34.905Z,86.04
2018-01-22T11:02:05.222Z,85.42
2018-01-22T11:04:34.465Z,85.18
2018-01-22T11:07:04.227Z,85.07
2018-01-22T11:09:33.453Z,84.95
2018-01-22T11:12:04.726Z,85.18
2018-01-22T11:14:35.400Z,85.18
2018-01-22T11:17:05.198Z,85.16
2018-01-22T11:19:35.184Z,85.13
2018-01-22T11:22:05.519Z,84.88
2018-01-22T11:24:35.072Z,85.31
2018-01-22T11:27:04.989Z,85.59
2018-01-22T11:29:34.450Z,85.70
2018-01-22T11:32:05.078Z,85.77
2018-01-22T11:34:34.269Z,85.93
2018-01-22T11:37:03.557Z,85.97
2018-01-22T11:39:32.734Z,85.88
2018-01-22T11:42:03.001Z,85.52
2018-01-22T11:44:33.850Z,85.60
2018-01-22T11:47:03.492Z,85.49
2018-01-22T11:49:34.242Z,85.34
2018-01-22T11:52:05.031Z,84.69
2018-01-22T11:54:34.368Z,84.74
2018-01-22T11:57:04.067Z,84.80
2018-01-22T12:02:17.049Z,84.74
2018-01-22T12:04:47.263Z,84.77
2018-01-22T12:07:16.643Z,85.01
2018-01-22T12:09:45.871Z,84.87
2018-01-22T12:12:15.466Z,84.55
2018-01-22T12:14:44.722Z,84.53
2018-01-22T12:17:13.940Z,84.37
2018-01-22T12:19:43.454Z,84.35
2018-01-22T12:22:12.768Z,84.45
2018-01-22T12:24:42.136Z,84.76
2018-01-22T12:27:11.725Z,84.86
2018-01-22T12:29:42.412Z,85.26
2018-01-22T12:32:11.586Z,85.31
2018-01-22T12:34:41.081Z,85.46
2018-01-22T12:37:10.334Z,85.27
2018-01-22T12:39:39.535Z,85.12
2018-01-22T12:42:09.062Z,84.99
2018-01-22T12:44:38.271Z,84.78
2018-01-22T12:47:07.490Z,84.90
2018-01-22T12:49:36.709Z,85.04
2018-01-22T12:52:05.966Z,84.95
2018-01-22T12:54:36.654Z,84.75
2018-01-22T12:57:05.783Z,84.84
2018-01-22T12:59:35.083Z,85.33
2018-01-22T13:02:06.360Z,85.56
2018-01-22T13:04:37.828Z,85.77
2018-01-22T13:07:07.339Z,85.32
2018-01-22T13:09:39.236Z,85.33
2018-01-22T13:12:08.583Z,85.54
2018-01-22T13:14:37.755Z,85.57
2018-01-22T13:17:06.910Z,85.74
2018-01-22T13:19:36.520Z,85.71
2018-01-22T13:22:06.184Z,85.76
2018-01-22T13:24:35.359Z,85.87
2018-01-22T13:27:05.564Z,85.69
2018-01-22T13:29:34.726Z,85.45
2018-01-22T13:32:05.104Z,85.47
2018-01-22T13:34:35.503Z,85.53
2018-01-22T13:37:05.511Z,85.40
2018-01-22T13:39:34.883Z,85.69
2018-01-22T13:42:05.500Z,85.34
2018-01-22T13:44:34.608Z,85.29
2018-01-22T13:49:57.266Z,85.30
2018-01-22T13:52:29.357Z,85.38
2018-01-22T13:54:59.145Z,85.45
2018-01-22T13:57:31.076Z,85.54
2018-01-22T14:00:00.420Z,85.71
2018-01-22T14:02:30.443Z,85.94
2018-01-22T14:04:59.688Z,85.84
2018-01-22T14:07:29.193Z,86.00
2018-01-22T14:09:58.881Z,85.85
2018-01-22T14:12:28.065Z,85.89
2018-01-22T14:14:57.252Z,85.99
2018-01-22T14:17:27.770Z,86.03
2018-01-22T14:19:57.242Z,86.25
2018-01-22T14:22:27.738Z,86.18
2018-01-22T14:24:56.914Z,86.14
2018-01-22T14:27:26.408Z,86.28
2018-01-22T14:29:55.531Z,86.26
2018-01-22T14:32:27.163Z,86.44
2018-01-22T14:34:56.914Z,86.42
2018-01-22T14:37:27.579Z,86.47
2018-01-22T14:39:56.748Z,86.44
2018-01-22T14:42:26.196Z,86.25
2018-01-22T14:44:55.355Z,86.14
2018-01-22T14:47:24.754Z,86.28
2018-01-22T14:49:54.236Z,86.41
2018-01-22T14:52:23.680Z,86.41
2018-01-22T14:54:52.850Z,86.12
2018-01-22T14:57:22.519Z,86.21
2018-01-22T14:59:51.687Z,86.06
2018-01-22T15:02:20.864Z,86.17
2018-01-22T15:04:50.318Z,85.89
2018-01-22T15:07:20.451Z,85.42
2018-01-22T15:09:49.626Z,85.58
2018-01-22T15:12:19.096Z,85.28
2018-01-22T15:14:49.705Z,85.36
2018-01-22T15:17:18.849Z,84.82
2018-01-22T15:19:48.450Z,84.57
2018-01-22T15:22:17.657Z,84.55
2018-01-22T15:24:46.844Z,84.62
2018-01-22T15:27:15.946Z,84.48
2018-01-22T15:29:45.111Z,84.34
2018-01-22T15:32:14.567Z,84.19
2018-01-22T15:34:43.740Z,83.98
2018-01-22T15:37:12.855Z,83.57
2018-01-22T15:39:42.288Z,83.42
2018-01-22T15:42:11.404Z,83.81
2018-01-22T15:44:41.262Z,83.93
2018-01-22T15:47:10.707Z,84.17
2018-01-22T15:49:43.092Z,84.34
2018-01-22T15:52:12.261Z,84.44
2018-01-22T15:54:41.762Z,84.82
2018-01-22T15:57:10.979Z,84.92
2018-01-22T15:59:40.195Z,85.14
2018-01-22T16:02:09.668Z,85.02
2018-01-22T16:04:38.820Z,85.32
2018-01-22T16:07:07.939Z,85.25
2018-01-22T16:09:38.354Z,85.54
2018-01-22T16:12:07.782Z,85.52
2018-01-22T16:14:37.300Z,85.33
2018-01-22T16:17:07.650Z,84.96
2018-01-22T16:19:38.456Z,84.89
2018-01-22T16:22:07.627Z,85.03
2018-01-22T16:24:37.062Z,85.05
2018-01-22T16:27:06.239Z,84.78
2018-01-22T16:29:35.385Z,84.78
2018-01-22T16:32:05.634Z,84.33
2018-01-22T16:34:34.908Z,84.20
2018-01-22T16:37:04.483Z,84.41
2018-01-22T16:39:33.631Z,84.94
2018-01-22T16:42:03.751Z,84.79
2018-01-22T16:44:33.281Z,84.68
2018-01-22T16:47:06.519Z,84.59
2018-01-22T16:49:37.513Z,84.70
2018-01-22T16:52:07.000Z,84.73
2018-01-22T16:54:36.909Z,84.87
2018-01-22T16:57:06.082Z,84.85
2018-01-22T16:59:35.761Z,84.62
2018-01-22T17:02:05.849Z,84.80
2018-01-22T17:04:35.865Z,84.71
2018-01-22T17:07:05.997Z,84.49
2018-01-22T17:09:36.550Z,84.05
2018-01-22T17:12:07.076Z,84.12
2018-01-22T17:14:36.717Z,83.96
2018-01-22T17:17:06.963Z,83.53
2018-01-22T17:19:36.997Z,83.13
2018-01-22T17:22:06.532Z,82.96
2018-01-22T17:24:36.538Z,83.04
2018-01-22T17:27:05.760Z,83.28
2018-01-22T17:29:36.609Z,82.77
2018-01-22T17:32:07.307Z,82.82
2018-01-22T17:34:36.478Z,82.68
2018-01-22T17:37:06.932Z,82.73
2018-01-22T17:39:36.205Z,82.49
2018-01-22T17:42:06.456Z,82.32
2018-01-22T17:44:35.993Z,82.36
2018-01-22T17:47:05.863Z,82.72
2018-01-22T17:49:35.061Z,82.64
2018-01-22T17:52:05.487Z,82.92
2018-01-22T17:54:35.683Z,82.78
2018-01-22T17:57:06.550Z,82.88
2018-01-22T17:59:37.010Z,82.85
2018-01-22T18:02:06.252Z,82.78
2018-01-22T18:04:35.735Z,82.70
2018-01-22T18:07:05.246Z,82.61
2018-01-22T18:09:34.581Z,82.70
2018-01-22T18:12:04.845Z,82.69
2018-01-22T18:14:34.138Z,82.23
2018-01-22T18:17:04.474Z,82.21
2018-01-22T18:19:34.167Z,82.06
2018-01-22T18:22:04.966Z,82.07
2018-01-22T18:24:34.440Z,81.28
2018-01-22T18:27:04.288Z,81.47
2018-01-22T18:29:33.432Z,81.23
2018-01-22T18:32:03.352Z,80.78
2018-01-22T18:34:32.944Z,80.62
2018-01-22T18:37:02.591Z,80.51
2018-01-22T18:39:31.750Z,80.22
2018-01-22T18:42:01.611Z,79.88
2018-01-22T18:44:30.833Z,79.92
2018-01-22T18:47:00.045Z,79.01
2018-01-22T18:49:29.499Z,78.87
2018-01-22T18:51:58.622Z,78.45
2018-01-22T18:54:27.773Z,78.36
2018-01-22T18:56:57.368Z,77.16
2018-01-22T18:59:26.939Z,77.56
2018-01-22T19:01:56.177Z,77.18
2018-01-22T19:04:25.517Z,76.19
2018-01-22T19:06:54.691Z,76.20
2018-01-22T19:09:24.205Z,76.52
2018-01-22T19:11:54.092Z,76.56
2018-01-22T19:14:23.402Z,76.46
2018-01-22T19:16:52.599Z,76.73
2018-01-22T19:19:21.728Z,76.17
2018-01-22T19:21:51.277Z,76.40
2018-01-22T19:24:20.414Z,76.22
2018-01-22T19:26:49.540Z,76.46
2018-01-22T19:29:19.067Z,76.81
2018-01-22T19:31:48.243Z,76.58
2018-01-22T19:34:17.394Z,76.58
2018-01-22T19:36:46.961Z,76.17
2018-01-22T19:39:16.075Z,75.73
2018-01-22T19:41:45.472Z,75.21
2018-01-22T19:44:15.068Z,74.79
2018-01-22T19:46:44.187Z,74.76
2018-01-22T19:49:13.335Z,74.44
2018-01-22T19:51:42.504Z,74.38
2018-01-22T19:54:11.631Z,74.15
2018-01-22T19:56:40.764Z,74.97
2018-01-22T19:59:10.230Z,75.30
2018-01-22T20:01:40.336Z,75.28
2018-01-22T20:04:09.560Z,75.66
2018-01-22T20:06:38.756Z,75.96
2018-01-22T20:09:07.863Z,75.73
2018-01-22T20:11:37.343Z,75.72
2018-01-22T20:14:06.490Z,75.55
2018-01-22T20:16:37.655Z,75.66
2018-01-22T20:19:07.240Z,75.43
2018-01-22T20:21:36.355Z,75.40
2018-01-22T20:24:06.397Z,75.25
2018-01-22T20:26:35.834Z,75.61
2018-01-22T20:29:05.078Z,75.24
2018-01-22T20:31:34.393Z,75.30
2018-01-22T20:34:04.717Z,75.49
2018-01-22T20:36:34.012Z,75.37
2018-01-22T20:39:03.535Z,74.51
2018-01-22T20:41:33.103Z,74.44
2018-01-22T20:44:05.697Z,74.37
2018-01-22T20:49:06.808Z,73.43
2018-01-22T20:51:36.200Z,73.64
2018-01-22T20:54:06.270Z,73.71
2018-01-22T20:56:35.935Z,73.13
2018-01-22T20:59:05.084Z,72.32
2018-01-22T21:01:34.354Z,72.53
2018-01-22T21:04:05.395Z,72.18
2018-01-22T21:06:35.522Z,71.71
2018-01-22T21:09:05.203Z,71.50
2018-01-22T21:11:34.403Z,71.61
2018-01-22T21:14:04.322Z,71.44
2018-01-22T21:16:34.064Z,71.03
2018-01-22T21:19:04.451Z,70.84
2018-01-22T21:21:33.659Z,70.74
2018-01-22T21:24:04.085Z,70.15
2018-01-22T21:26:33.445Z,70.09
2018-01-22T21:29:03.031Z,69.94
2018-01-22T21:31:34.571Z,69.70
2018-01-22T21:34:05.167Z,69.46
2018-01-22T21:36:34.438Z,68.99
2018-01-22T21:39:04.026Z,68.69
2018-01-22T21:41:33.558Z,68.45
2018-01-22T21:44:04.173Z,67.26
2018-01-22T21:46:33.458Z,67.31
2018-01-22T21:49:03.176Z,67.38
2018-01-22T21:51:33.063Z,67.39
2018-01-22T21:54:02.540Z,67.87
2018-01-22T21:56:31.829Z,67.52
2018-01-22T21:59:01.365Z,67.01
2018-01-22T22:01:30.561Z,66.90
2018-01-22T22:03:59.745Z,66.89
2018-01-22T22:06:29.384Z,66.72
2018-01-22T22:08:58.598Z,66.17
2018-01-22T22:11:27.914Z,66.01
2018-01-22T22:13:57.712Z,65.44
2018-01-22T22:16:26.995Z,64.99
2018-01-22T22:18:57.317Z,64.90
2018-01-22T22:21:27.082Z,64.63
2018-01-22T22:23:56.307Z,64.63
2018-01-22T22:26:27.518Z,65.05
2018-01-22T22:28:58.357Z,65.28
2018-01-22T22:31:27.699Z,65.43
2018-01-22T22:33:56.883Z,65.68
2018-01-22T22:36:26.163Z,65.37
2018-01-22T22:38:55.358Z,65.75
2018-01-22T22:41:24.862Z,65.53
2018-01-22T22:43:54.923Z,65.58
2018-01-22T22:46:25.208Z,65.59
2018-01-22T22:48:55.250Z,65.90
2018-01-22T22:51:25.304Z,65.77
2018-01-22T22:53:54.697Z,65.97
2018-01-22T22:56:24.892Z,66.48
2018-01-22T22:58:54.389Z,66.80
2018-01-22T23:01:25.118Z,67.15
2018-01-22T23:03:55.451Z,67.31
2018-01-22T23:06:24.758Z,66.92
2018-01-22T23:08:54.005Z,67.13
2018-01-22T23:11:25.038Z,67.23
2018-01-22T23:13:54.356Z,67.21
2018-01-22T23:16:23.536Z,67.62
2018-01-22T23:18:52.768Z,67.55
2018-01-22T23:21:22.058Z,67.69
2018-01-22T23:23:54.370Z,68.09
2018-01-22T23:26:23.602Z,68.52
2018-01-22T23:28:54.354Z,68.49
2018-01-22T23:31:23.702Z,68.47
2018-01-22T23:33:54.670Z,68.43
2018-01-22T23:39:20.716Z,68.49
2018-01-22T23:41:52.186Z,69.03
2018-01-22T23:44:21.362Z,69.43
2018-01-22T23:46:50.512Z,69.70
2018-01-22T23:49:20.171Z,70.34
2018-01-22T23:51:49.945Z,71.07
2018-01-22T23:54:22.023Z,71.26
2018-01-22T23:56:51.527Z,71.67
2018-01-22T23:59:20.845Z,71.62
